createdAt,value
2023-04-16T00:01:43.874Z,10.99
2023-04-16T00:04:10.601Z,10.99
2023-04-16T00:06:37.233Z,10.93
2023-04-16T00:09:03.660Z,10.89
2023-04-16T00:11:30.102Z,10.89
2023-04-16T00:13:56.534Z,10.87
2023-04-16T00:16:23.043Z,10.84
2023-04-16T00:18:49.569Z,10.69
2023-04-16T00:21:16.159Z,10.81
2023-04-16T00:23:42.702Z,10.92
2023-04-16T00:26:09.209Z,10.95
2023-04-16T00:28:41.769Z,10.98
2023-04-16T00:31:08.382Z,10.95
2023-04-16T00:33:34.909Z,10.89
2023-04-16T00:36:01.454Z,10.88
2023-04-16T00:38:28.070Z,10.84
2023-04-16T00:40:54.622Z,10.88
2023-04-16T00:43:21.074Z,10.90
2023-04-16T00:45:47.586Z,10.90
2023-04-16T00:50:54.448Z,10.91
2023-04-16T00:53:20.998Z,10.91
2023-04-16T00:55:47.666Z,10.91
2023-04-16T00:58:14.170Z,10.90
2023-04-16T01:00:40.659Z,10.92
2023-04-16T01:03:07.303Z,10.90
2023-04-16T01:05:33.889Z,10.88
2023-04-16T01:08:03.106Z,10.90
2023-04-16T01:10:29.850Z,10.89
2023-04-16T01:12:56.264Z,10.87
2023-04-16T01:15:22.680Z,10.86
2023-04-16T01:17:49.288Z,10.86
2023-04-16T01:20:15.767Z,10.86
2023-04-16T01:22:42.225Z,10.84
2023-04-16T01:25:08.687Z,10.87
2023-04-16T01:27:35.217Z,10.86
2023-04-16T01:30:01.696Z,10.85
2023-04-16T01:32:30.884Z,10.83
2023-04-16T01:35:04.677Z,10.74
2023-04-16T01:37:42.058Z,10.75
2023-04-16T01:40:09.213Z,10.69
2023-04-16T01:42:35.673Z,10.74
2023-04-16T01:45:02.115Z,10.76
2023-04-16T01:47:28.634Z,10.78
2023-04-16T01:49:55.089Z,10.77
2023-04-16T01:52:21.531Z,10.78
2023-04-16T01:54:48.057Z,10.80
2023-04-16T01:57:14.540Z,10.80
2023-04-16T01:59:41.217Z,10.79
2023-04-16T02:02:07.760Z,10.79
2023-04-16T02:04:34.259Z,10.79
2023-04-16T02:07:00.731Z,10.79
2023-04-16T02:09:27.211Z,10.79
2023-04-16T02:11:53.665Z,10.79
2023-04-16T02:14:20.145Z,10.85
2023-04-16T02:16:46.666Z,10.85
2023-04-16T02:19:13.324Z,10.78
2023-04-16T02:21:39.807Z,10.71
2023-04-16T02:24:06.237Z,10.76
2023-04-16T02:26:32.765Z,10.77
2023-04-16T02:28:59.364Z,10.58
2023-04-16T02:31:25.891Z,10.61
2023-04-16T02:33:52.385Z,10.64
2023-04-16T02:36:23.161Z,10.72
2023-04-16T02:38:49.651Z,10.73
2023-04-16T02:41:16.088Z,10.76
2023-04-16T02:43:42.681Z,10.75
2023-04-16T02:46:09.275Z,10.79
2023-04-16T02:48:35.803Z,10.73
2023-04-16T02:51:02.279Z,10.73
2023-04-16T02:53:28.860Z,10.74
2023-04-16T02:55:55.386Z,10.72
2023-04-16T02:58:21.879Z,10.61
2023-04-16T03:00:48.377Z,10.26
2023-04-16T03:03:14.881Z,10.20
2023-04-16T03:05:41.394Z,10.35
2023-04-16T03:08:07.989Z,10.49
2023-04-16T03:10:34.514Z,10.57
2023-04-16T03:13:00.952Z,10.59
2023-04-16T03:15:27.481Z,10.66
2023-04-16T03:17:54.024Z,10.70
2023-04-16T03:20:23.192Z,10.63
2023-04-16T03:22:49.669Z,10.61
2023-04-16T03:25:16.091Z,10.63
2023-04-16T03:27:42.535Z,10.70
2023-04-16T03:30:09.010Z,10.74
2023-04-16T03:32:35.530Z,10.76
2023-04-16T03:35:02.024Z,10.76
2023-04-16T03:37:28.649Z,10.76
2023-04-16T03:39:55.152Z,10.77
2023-04-16T03:42:21.669Z,10.79
2023-04-16T03:44:48.195Z,10.82
2023-04-16T03:47:14.706Z,10.83
2023-04-16T03:49:41.177Z,10.84
2023-04-16T03:52:07.696Z,10.87
2023-04-16T03:54:34.137Z,10.83
2023-04-16T03:57:00.565Z,10.81
2023-04-16T03:59:26.995Z,10.80
2023-04-16T04:01:53.483Z,10.82
2023-04-16T04:04:20.275Z,10.83
2023-04-16T04:06:46.830Z,10.76
2023-04-16T04:09:13.316Z,10.80
2023-04-16T04:11:39.806Z,10.81
2023-04-16T04:14:06.263Z,10.75
2023-04-16T04:16:32.849Z,10.72
2023-04-16T04:18:59.373Z,10.73
2023-04-16T04:21:25.823Z,10.77
2023-04-16T04:23:53.229Z,10.76
2023-04-16T04:26:20.412Z,10.80
2023-04-16T04:28:46.879Z,10.81
2023-04-16T04:31:13.366Z,10.82
2023-04-16T04:33:39.804Z,10.81
2023-04-16T04:36:06.315Z,10.78
2023-04-16T04:38:32.780Z,10.79
2023-04-16T04:40:59.336Z,10.68
2023-04-16T04:43:34.406Z,10.72
2023-04-16T04:46:00.946Z,10.76
2023-04-16T04:48:27.434Z,10.77
2023-04-16T04:50:53.900Z,10.77
2023-04-16T04:53:20.408Z,10.81
2023-04-16T04:55:48.082Z,10.79
2023-04-16T04:58:17.267Z,10.81
2023-04-16T05:00:43.856Z,10.78
2023-04-16T05:03:10.436Z,10.77
2023-04-16T05:05:36.960Z,10.75
2023-04-16T05:08:03.424Z,10.74
2023-04-16T05:10:29.943Z,10.73
2023-04-16T05:15:36.682Z,10.73
2023-04-16T05:18:03.305Z,10.72
2023-04-16T05:20:29.806Z,10.65
2023-04-16T05:22:56.237Z,10.70
2023-04-16T05:25:22.691Z,10.72
2023-04-16T05:27:49.177Z,10.76
2023-04-16T05:30:15.793Z,10.76
2023-04-16T05:32:42.380Z,10.75
2023-04-16T05:35:17.188Z,10.76
2023-04-16T05:37:44.083Z,10.77
2023-04-16T05:40:10.559Z,10.78
2023-04-16T05:42:36.935Z,10.77
2023-04-16T05:45:03.652Z,10.77
2023-04-16T05:47:30.204Z,10.80
2023-04-16T05:49:56.729Z,10.76
2023-04-16T05:52:23.241Z,10.76
2023-04-16T05:54:49.722Z,10.77
2023-04-16T05:57:16.088Z,10.79
2023-04-16T05:59:42.693Z,10.80
2023-04-16T06:02:09.415Z,10.80
2023-04-16T06:04:35.923Z,10.84
2023-04-16T06:07:02.365Z,10.85
2023-04-16T06:12:09.134Z,10.87
2023-04-16T06:14:35.736Z,10.87
2023-04-16T06:17:02.350Z,10.88
2023-04-16T06:19:28.920Z,10.90
2023-04-16T06:21:55.405Z,10.93
2023-04-16T06:24:21.866Z,10.93
2023-04-16T06:26:48.330Z,10.94
2023-04-16T06:29:14.793Z,10.95
2023-04-16T06:31:41.343Z,10.99
2023-04-16T06:34:07.850Z,11.02
2023-04-16T06:36:36.721Z,11.02
2023-04-16T06:39:03.256Z,11.03
2023-04-16T06:41:29.772Z,11.06
2023-04-16T06:43:56.291Z,11.09
2023-04-16T06:46:22.757Z,11.11
2023-04-16T06:48:49.227Z,11.13
2023-04-16T06:51:15.675Z,11.17
2023-04-16T06:53:42.090Z,11.06
2023-04-16T06:56:08.541Z,10.96
2023-04-16T06:58:35.003Z,10.93
2023-04-16T07:01:01.540Z,10.94
2023-04-16T07:03:28.186Z,10.96
2023-04-16T07:05:54.817Z,11.05
2023-04-16T07:08:21.380Z,11.07
2023-04-16T07:10:47.830Z,11.14
2023-04-16T07:13:14.264Z,11.18
2023-04-16T07:15:40.759Z,11.17
2023-04-16T07:18:07.321Z,11.23
2023-04-16T07:20:33.757Z,11.20
2023-04-16T07:23:00.184Z,11.24
2023-04-16T07:25:26.650Z,11.21
2023-04-16T07:27:53.168Z,11.23
2023-04-16T07:30:19.675Z,11.20
2023-04-16T07:32:46.285Z,11.19
2023-04-16T07:35:19.964Z,11.20
2023-04-16T07:37:46.546Z,11.25
2023-04-16T07:40:13.080Z,11.27
2023-04-16T07:42:39.704Z,11.28
2023-04-16T07:45:06.477Z,11.26
2023-04-16T07:47:34.259Z,11.32
2023-04-16T07:50:00.858Z,11.37
2023-04-16T07:52:27.374Z,11.34
2023-04-16T07:54:59.762Z,11.37
2023-04-16T07:57:26.306Z,11.37
2023-04-16T07:59:52.796Z,11.26
2023-04-16T08:02:19.402Z,11.25
2023-04-16T08:04:46.114Z,11.26
2023-04-16T08:07:17.719Z,11.25
2023-04-16T08:09:44.320Z,11.22
2023-04-16T08:12:10.797Z,11.23
2023-04-16T08:14:37.277Z,11.20
2023-04-16T08:17:03.800Z,11.16
2023-04-16T08:19:31.572Z,11.15
2023-04-16T08:21:58.025Z,11.18
2023-04-16T08:24:24.438Z,11.21
2023-04-16T08:26:50.968Z,11.19
2023-04-16T08:29:17.656Z,11.23
2023-04-16T08:31:44.152Z,11.25
2023-04-16T08:34:10.589Z,11.30
2023-04-16T08:36:36.975Z,11.34
2023-04-16T08:39:03.911Z,11.36
2023-04-16T08:41:33.586Z,11.38
2023-04-16T08:43:59.994Z,11.40
2023-04-16T08:46:27.618Z,11.41
2023-04-16T08:48:54.018Z,11.41
2023-04-16T08:51:20.430Z,11.44
2023-04-16T08:53:46.853Z,11.47
2023-04-16T08:56:13.309Z,11.47
2023-04-16T08:58:39.748Z,11.52
2023-04-16T09:01:06.244Z,11.57
2023-04-16T09:03:35.667Z,11.58
2023-04-16T09:06:02.765Z,11.61
2023-04-16T09:08:29.165Z,11.65
2023-04-16T09:10:55.722Z,11.69
2023-04-16T09:13:22.169Z,11.73
2023-04-16T09:15:48.593Z,11.74
2023-04-16T09:18:15.098Z,11.72
2023-04-16T09:20:41.541Z,11.67
2023-04-16T09:23:07.970Z,11.60
2023-04-16T09:25:34.481Z,11.54
2023-04-16T09:28:00.953Z,11.53
2023-04-16T09:30:27.422Z,11.48
2023-04-16T09:32:53.954Z,11.50
2023-04-16T09:35:21.500Z,11.49
2023-04-16T09:37:47.982Z,11.49
2023-04-16T09:40:14.484Z,11.53
2023-04-16T09:42:40.889Z,11.48
2023-04-16T09:45:07.345Z,11.44
2023-04-16T09:47:33.723Z,11.50
2023-04-16T09:50:00.235Z,11.55
2023-04-16T09:52:29.379Z,11.59
2023-04-16T09:54:55.826Z,11.58
2023-04-16T09:57:22.318Z,11.63
2023-04-16T09:59:52.460Z,11.68
2023-04-16T10:02:23.209Z,11.66
2023-04-16T10:04:50.788Z,11.70
2023-04-16T10:07:26.396Z,11.70
2023-04-16T10:09:52.864Z,11.73
2023-04-16T10:12:19.296Z,11.71
2023-04-16T10:14:46.916Z,11.71
2023-04-16T10:17:14.794Z,11.72
2023-04-16T10:19:41.219Z,11.73
2023-04-16T10:22:07.658Z,11.71
2023-04-16T10:24:34.155Z,11.75
2023-04-16T10:27:01.888Z,11.75
2023-04-16T10:29:28.428Z,11.74
2023-04-16T10:32:02.435Z,11.69
2023-04-16T10:34:28.896Z,11.73
2023-04-16T10:36:55.362Z,11.75
2023-04-16T10:39:22.452Z,11.78
2023-04-16T10:41:48.839Z,11.79
2023-04-16T10:44:15.344Z,11.79
2023-04-16T10:46:41.866Z,11.79
2023-04-16T10:49:09.946Z,11.79
2023-04-16T10:51:36.589Z,11.76
2023-04-16T10:54:03.076Z,11.72
2023-04-16T10:56:29.593Z,11.63
2023-04-16T10:58:56.309Z,11.59
2023-04-16T11:01:22.945Z,11.60
2023-04-16T11:03:49.559Z,11.49
2023-04-16T11:06:16.112Z,11.49
2023-04-16T11:08:53.918Z,11.54
2023-04-16T11:11:21.589Z,11.61
2023-04-16T11:13:48.154Z,11.68
2023-04-16T11:16:14.671Z,11.75
2023-04-16T11:21:31.621Z,11.67
2023-04-16T11:26:48.635Z,11.69
2023-04-16T11:29:15.039Z,11.71
2023-04-16T11:34:25.507Z,11.76
2023-04-16T11:36:52.093Z,11.81
2023-04-16T11:39:19.564Z,11.86
2023-04-16T11:41:46.104Z,11.91
2023-04-16T11:44:12.673Z,12.00
2023-04-16T11:46:39.195Z,12.05
2023-04-16T11:49:06.891Z,12.14
2023-04-16T11:51:33.321Z,12.18
2023-04-16T11:53:59.801Z,12.06
2023-04-16T11:56:26.160Z,12.11
2023-04-16T11:58:52.538Z,12.15
2023-04-16T12:01:18.961Z,12.04
2023-04-16T12:03:45.818Z,12.00
2023-04-16T12:06:12.622Z,11.99
2023-04-16T12:08:39.075Z,12.02
2023-04-16T12:11:06.489Z,12.04
2023-04-16T12:13:32.959Z,11.98
2023-04-16T12:15:59.446Z,12.00
2023-04-16T12:18:25.957Z,11.98
2023-04-16T12:23:43.379Z,11.98
2023-04-16T12:26:09.779Z,12.02
2023-04-16T12:28:36.197Z,12.02
2023-04-16T12:31:03.959Z,12.03
2023-04-16T12:33:32.683Z,12.05
2023-04-16T12:35:59.129Z,12.13
2023-04-16T12:38:26.302Z,12.23
2023-04-16T12:40:53.158Z,12.37
2023-04-16T12:43:19.574Z,12.47
2023-04-16T12:45:49.178Z,12.53
2023-04-16T12:48:16.963Z,12.65
2023-04-16T12:50:43.312Z,12.65
2023-04-16T12:53:09.800Z,12.74
2023-04-16T12:55:36.215Z,12.83
2023-04-16T13:00:44.024Z,12.67
2023-04-16T13:03:10.593Z,12.64
2023-04-16T13:05:37.174Z,12.62
2023-04-16T13:08:04.617Z,12.61
2023-04-16T13:10:32.068Z,12.61
2023-04-16T13:12:58.464Z,12.65
2023-04-16T13:15:38.204Z,12.71
2023-04-16T13:18:04.751Z,12.75
2023-04-16T13:20:32.548Z,12.76
2023-04-16T13:22:59.081Z,12.75
2023-04-16T13:25:25.506Z,12.77
2023-04-16T13:27:52.030Z,12.79
2023-04-16T13:30:18.640Z,12.77
2023-04-16T13:32:47.083Z,12.79
2023-04-16T13:35:15.894Z,12.69
2023-04-16T13:37:42.364Z,12.56
2023-04-16T13:40:08.937Z,12.50
2023-04-16T13:42:38.555Z,12.54
2023-04-16T13:48:03.182Z,12.63
2023-04-16T13:50:36.305Z,12.67
2023-04-16T13:53:02.700Z,12.71
2023-04-16T13:55:31.442Z,12.72
2023-04-16T13:58:08.026Z,12.71
2023-04-16T14:03:19.445Z,12.72
2023-04-16T14:05:45.931Z,12.72
2023-04-16T14:08:12.412Z,12.73
2023-04-16T14:10:38.849Z,12.70
2023-04-16T14:13:05.351Z,12.77
2023-04-16T14:15:31.911Z,12.76
2023-04-16T14:17:58.514Z,12.86
2023-04-16T14:20:25.087Z,12.93
2023-04-16T14:22:51.620Z,12.83
2023-04-16T14:25:18.212Z,12.98
2023-04-16T14:27:44.860Z,13.10
2023-04-16T14:30:11.400Z,13.21
2023-04-16T14:32:38.108Z,13.23
2023-04-16T14:35:06.758Z,13.31
2023-04-16T14:37:33.311Z,13.38
2023-04-16T14:40:02.564Z,13.32
2023-04-16T14:42:28.991Z,13.27
2023-04-16T14:44:55.799Z,13.20
2023-04-16T14:47:25.376Z,13.16
2023-04-16T14:49:51.884Z,13.15
2023-04-16T14:52:18.344Z,13.08
2023-04-16T14:54:45.122Z,13.07
2023-04-16T14:57:11.634Z,13.01
2023-04-16T14:59:38.129Z,12.98
2023-04-16T15:02:04.747Z,12.91
2023-04-16T15:04:31.846Z,12.91
2023-04-16T15:06:58.504Z,12.96
2023-04-16T15:09:24.986Z,12.95
2023-04-16T15:11:55.086Z,13.00
2023-04-16T15:14:21.502Z,13.00
2023-04-16T15:16:48.012Z,13.01
2023-04-16T15:19:16.702Z,12.96
2023-04-16T15:21:43.189Z,12.95
2023-04-16T15:24:17.557Z,12.93
2023-04-16T15:26:43.997Z,13.01
2023-04-16T15:29:10.508Z,13.04
2023-04-16T15:31:38.070Z,12.98
2023-04-16T15:34:06.161Z,13.08
2023-04-16T15:36:32.873Z,13.11
2023-04-16T15:39:00.235Z,13.06
2023-04-16T15:41:26.672Z,13.11
2023-04-16T15:43:53.198Z,13.16
2023-04-16T15:46:19.665Z,13.24
2023-04-16T15:48:46.135Z,13.29
2023-04-16T15:51:12.524Z,13.34
2023-04-16T15:53:41.088Z,13.37
2023-04-16T15:56:07.586Z,13.26
2023-04-16T15:58:34.034Z,13.33
2023-04-16T16:01:00.453Z,13.28
2023-04-16T16:03:26.990Z,13.31
2023-04-16T16:05:53.658Z,13.34
2023-04-16T16:08:20.201Z,13.35
2023-04-16T16:10:46.890Z,13.33
2023-04-16T16:13:13.401Z,13.33
2023-04-16T16:15:39.980Z,13.38
2023-04-16T16:18:06.593Z,13.40
2023-04-16T16:20:33.120Z,13.40
2023-04-16T16:22:59.514Z,13.31
2023-04-16T16:25:26.986Z,13.36
2023-04-16T16:27:53.510Z,13.37
2023-04-16T16:30:19.970Z,13.42
2023-04-16T16:32:46.535Z,13.44
2023-04-16T16:35:12.927Z,13.44
2023-04-16T16:37:39.457Z,13.35
2023-04-16T16:40:06.052Z,13.36
2023-04-16T16:42:32.553Z,13.37
2023-04-16T16:44:58.996Z,13.36
2023-04-16T16:47:25.789Z,13.36
2023-04-16T16:49:53.250Z,13.35
2023-04-16T16:52:22.366Z,13.34
2023-04-16T16:54:48.797Z,13.32
2023-04-16T16:57:15.916Z,13.28
2023-04-16T16:59:42.321Z,13.17
2023-04-16T17:02:08.932Z,13.15
2023-04-16T17:04:35.587Z,13.19
2023-04-16T17:07:02.214Z,13.21
2023-04-16T17:09:28.657Z,13.19
2023-04-16T17:14:38.424Z,13.20
2023-04-16T17:17:04.917Z,13.23
2023-04-16T17:19:32.697Z,13.23
2023-04-16T17:21:59.223Z,13.22
2023-04-16T17:24:26.012Z,13.20
2023-04-16T17:26:52.476Z,13.18
2023-04-16T17:29:18.903Z,13.18
2023-04-16T17:31:45.329Z,13.18
2023-04-16T17:34:11.921Z,13.18
2023-04-16T17:36:38.482Z,13.11
2023-04-16T17:39:04.934Z,13.04
2023-04-16T17:41:31.390Z,13.08
2023-04-16T17:43:57.827Z,13.09
2023-04-16T17:46:24.323Z,13.09
2023-04-16T17:48:52.077Z,13.01
2023-04-16T17:51:18.479Z,13.04
2023-04-16T17:53:45.043Z,13.05
2023-04-16T17:56:11.551Z,12.98
2023-04-16T17:58:40.974Z,12.98
2023-04-16T18:01:07.483Z,12.84
2023-04-16T18:03:34.163Z,12.87
2023-04-16T18:06:04.309Z,12.86
2023-04-16T18:08:35.708Z,12.87
2023-04-16T18:11:02.149Z,12.87
2023-04-16T18:13:28.645Z,12.91
2023-04-16T18:15:55.216Z,12.94
2023-04-16T18:18:21.694Z,12.96
2023-04-16T18:20:48.252Z,12.93
2023-04-16T18:23:14.819Z,12.94
2023-04-16T18:25:43.466Z,12.86
2023-04-16T18:28:09.998Z,12.87
2023-04-16T18:30:40.036Z,12.89
2023-04-16T18:33:34.190Z,12.86
2023-04-16T18:35:53.443Z,12.86
2023-04-16T18:38:19.995Z,12.86
2023-04-16T18:40:46.674Z,12.89
2023-04-16T18:43:15.159Z,12.89
2023-04-16T18:45:43.031Z,12.87
2023-04-16T18:48:09.491Z,12.81
2023-04-16T18:50:36.052Z,12.77
2023-04-16T18:53:02.669Z,12.75
2023-04-16T18:55:29.211Z,12.75
2023-04-16T18:57:55.732Z,12.72
2023-04-16T19:00:22.286Z,12.71
2023-04-16T19:02:48.966Z,12.73
2023-04-16T19:05:15.444Z,12.72
2023-04-16T19:07:41.938Z,12.68
2023-04-16T19:10:08.419Z,12.68
2023-04-16T19:12:34.956Z,12.63
2023-04-16T19:15:01.401Z,12.63
2023-04-16T19:17:27.860Z,12.59
2023-04-16T19:19:54.339Z,12.57
2023-04-16T19:22:28.693Z,12.40
2023-04-16T19:24:55.074Z,12.46
2023-04-16T19:27:21.488Z,12.57
2023-04-16T19:29:47.974Z,12.51
2023-04-16T19:32:14.523Z,12.45
2023-04-16T19:34:40.966Z,12.55
2023-04-16T19:37:12.136Z,12.44
2023-04-16T19:39:38.698Z,12.52
2023-04-16T19:42:06.056Z,12.52
2023-04-16T19:44:32.551Z,12.50
2023-04-16T19:46:59.000Z,12.45
2023-04-16T19:49:25.514Z,12.50
2023-04-16T19:52:05.185Z,12.52
2023-04-16T19:54:31.752Z,12.55
2023-04-16T19:56:58.605Z,12.58
2023-04-16T19:59:26.049Z,12.53
2023-04-16T20:01:54.667Z,12.54
2023-04-16T20:04:21.101Z,12.37
2023-04-16T20:06:47.602Z,12.47
2023-04-16T20:09:24.905Z,12.50
2023-04-16T20:11:51.377Z,12.48
2023-04-16T20:14:17.867Z,12.48
2023-04-16T20:16:44.535Z,12.52
2023-04-16T20:19:11.195Z,12.53
2023-04-16T20:21:37.733Z,12.43
2023-04-16T20:24:04.140Z,12.45
2023-04-16T20:26:30.530Z,12.47
2023-04-16T20:28:59.170Z,12.47
2023-04-16T20:31:25.888Z,12.45
2023-04-16T20:33:52.651Z,12.44
2023-04-16T20:36:19.118Z,12.46
2023-04-16T20:38:45.596Z,12.46
2023-04-16T20:41:12.096Z,12.38
2023-04-16T20:43:39.740Z,12.39
2023-04-16T20:46:06.228Z,12.35
2023-04-16T20:48:32.763Z,12.35
2023-04-16T20:51:00.562Z,12.32
2023-04-16T20:53:29.080Z,12.25
2023-04-16T20:55:55.567Z,12.11
2023-04-16T21:01:02.361Z,12.17
2023-04-16T21:03:28.967Z,12.24
2023-04-16T21:05:55.727Z,12.28
2023-04-16T21:08:22.297Z,12.26
2023-04-16T21:10:48.787Z,12.24
2023-04-16T21:13:15.297Z,12.23
2023-04-16T21:15:46.693Z,12.24
2023-04-16T21:18:13.192Z,12.18
2023-04-16T21:20:39.697Z,12.13
2023-04-16T21:23:06.171Z,12.11
2023-04-16T21:25:32.691Z,12.11
2023-04-16T21:27:59.205Z,12.05
2023-04-16T21:30:25.714Z,12.07
2023-04-16T21:32:52.183Z,12.05
2023-04-16T21:35:18.658Z,12.08
2023-04-16T21:37:45.124Z,12.07
2023-04-16T21:40:11.720Z,11.92
2023-04-16T21:42:38.230Z,11.82
2023-04-16T21:45:04.704Z,11.83
2023-04-16T21:47:31.277Z,11.91
2023-04-16T21:49:57.889Z,11.94
2023-04-16T21:52:24.340Z,11.93
2023-04-16T21:54:50.928Z,11.94
2023-04-16T21:57:17.445Z,11.95
2023-04-16T21:59:43.913Z,11.97
2023-04-16T22:02:10.520Z,11.96
2023-04-16T22:04:44.059Z,11.92
2023-04-16T22:07:10.557Z,11.91
2023-04-16T22:09:37.014Z,11.84
2023-04-16T22:12:03.647Z,11.91
2023-04-16T22:14:30.137Z,11.89
2023-04-16T22:16:56.712Z,11.89
2023-04-16T22:19:23.292Z,11.89
2023-04-16T22:21:51.930Z,11.89
2023-04-16T22:24:18.339Z,11.84
2023-04-16T22:26:44.843Z,11.86
2023-04-16T22:29:11.627Z,11.87
2023-04-16T22:31:38.370Z,11.87
2023-04-16T22:34:04.913Z,11.85
2023-04-16T22:36:31.489Z,11.76
2023-04-16T22:38:57.968Z,11.75
2023-04-16T22:41:24.434Z,11.76
2023-04-16T22:43:52.459Z,11.72
2023-04-16T22:46:19.036Z,11.63
2023-04-16T22:48:45.595Z,11.62
2023-04-16T22:51:12.077Z,11.65
2023-04-16T22:53:38.571Z,11.46
2023-04-16T22:56:05.123Z,11.52
2023-04-16T22:58:32.914Z,11.54
2023-04-16T23:00:59.566Z,11.47
2023-04-16T23:03:26.264Z,11.48
2023-04-16T23:05:52.772Z,11.49
2023-04-16T23:08:19.253Z,11.45
2023-04-16T23:10:53.101Z,11.40
2023-04-16T23:13:19.557Z,11.38
2023-04-16T23:15:46.101Z,11.32
2023-04-16T23:18:12.623Z,11.35
2023-04-16T23:20:39.059Z,11.34
2023-04-16T23:23:05.498Z,11.31
2023-04-16T23:25:31.956Z,11.26
2023-04-16T23:27:58.405Z,11.21
2023-04-16T23:30:24.867Z,11.17
2023-04-16T23:32:51.408Z,11.19
2023-04-16T23:35:17.815Z,11.22
2023-04-16T23:37:44.297Z,11.23
2023-04-16T23:40:10.775Z,11.20
2023-04-16T23:42:37.272Z,11.17
2023-04-16T23:45:03.692Z,11.10
2023-04-16T23:47:30.181Z,11.13
2023-04-16T23:49:56.661Z,11.17
2023-04-16T23:52:23.144Z,11.09
2023-04-16T23:54:49.576Z,11.03
2023-04-16T23:57:16.103Z,10.99
2023-04-16T23:59:42.585Z,11.10
